createdAt,value
2023-01-29T00:01:53.895Z,100742.84
2023-01-29T00:04:20.899Z,100736.59
2023-01-29T00:06:48.930Z,100736.59
2023-01-29T00:09:15.970Z,100746.25
2023-01-29T00:11:43.362Z,100740.09
2023-01-29T00:14:10.511Z,100732.06
2023-01-29T00:16:37.404Z,100718.88
2023-01-29T00:19:04.564Z,100718.81
2023-01-29T00:21:32.262Z,100719.66
2023-01-29T00:24:00.122Z,100718.88
2023-01-29T00:26:27.607Z,100721.47
2023-01-29T00:28:55.559Z,100723.31
2023-01-29T00:31:24.467Z,100724.28
2023-01-29T00:33:52.471Z,100727.06
2023-01-29T00:36:21.347Z,100726.13
2023-01-29T00:38:58.638Z,100718.19
2023-01-29T00:41:49.799Z,100732.38
2023-01-29T00:44:35.695Z,100725.19
2023-01-29T00:47:04.082Z,100725.19
2023-01-29T00:49:38.453Z,100720.03
2023-01-29T00:52:23.797Z,100728.78
2023-01-29T00:54:51.870Z,100724.28
2023-01-29T00:57:18.581Z,100728.63
2023-01-29T00:59:46.500Z,100725.03
2023-01-29T01:02:31.841Z,100725.91
2023-01-29T01:04:58.722Z,100735.78
2023-01-29T01:07:25.751Z,100730.50
2023-01-29T01:10:11.226Z,100730.50
2023-01-29T01:12:39.060Z,100734.97
2023-01-29T01:15:06.334Z,100730.50
2023-01-29T01:17:33.285Z,100727.06
2023-01-29T01:20:00.840Z,100733.28
2023-01-29T01:22:28.087Z,100735.94
2023-01-29T01:24:55.088Z,100722.59
2023-01-29T01:27:22.037Z,100733.22
2023-01-29T01:29:48.949Z,100720.81
2023-01-29T01:32:16.158Z,100712.88
2023-01-29T01:34:44.958Z,100714.56
2023-01-29T01:37:14.446Z,100715.38
2023-01-29T01:39:41.419Z,100715.44
2023-01-29T01:42:14.607Z,100712.72
2023-01-29T01:45:04.496Z,100709.28
2023-01-29T01:47:34.795Z,100705.72
2023-01-29T01:50:09.271Z,100700.41
2023-01-29T01:52:39.326Z,100695.84
2023-01-29T01:55:07.977Z,100688.84
2023-01-29T01:57:35.192Z,100693.22
2023-01-29T02:00:10.405Z,100688.84
2023-01-29T02:03:04.896Z,100693.22
2023-01-29T02:05:52.893Z,100701.16
2023-01-29T02:08:57.422Z,100694.06
2023-01-29T02:11:25.392Z,100701.00
2023-01-29T02:13:53.889Z,100702.91
2023-01-29T02:16:25.851Z,100693.84
2023-01-29T02:18:53.940Z,100701.81
2023-01-29T02:21:45.475Z,100699.16
2023-01-29T02:24:48.818Z,100695.56
2023-01-29T02:27:49.354Z,100688.47
2023-01-29T02:30:28.157Z,100681.22
2023-01-29T02:33:36.360Z,100673.25
2023-01-29T02:36:49.460Z,100674.09
2023-01-29T02:39:42.618Z,100660.91
2023-01-29T02:42:41.584Z,100671.44
2023-01-29T02:45:16.601Z,100660.00
2023-01-29T02:47:53.427Z,100667.00
2023-01-29T02:50:29.052Z,100663.47
2023-01-29T02:53:02.924Z,100664.19
2023-01-29T02:55:38.472Z,100668.63
2023-01-29T02:58:31.471Z,100659.75
2023-01-29T03:01:20.946Z,100654.44
2023-01-29T03:03:59.030Z,100650.13
2023-01-29T03:06:32.389Z,100653.59
2023-01-29T03:09:01.256Z,100652.63
2023-01-29T03:11:41.936Z,100651.72
2023-01-29T03:14:17.224Z,100646.34
2023-01-29T03:16:54.412Z,100644.59
2023-01-29T03:19:44.187Z,100633.16
2023-01-29T03:22:23.594Z,100634.94
2023-01-29T03:25:15.710Z,100634.06
2023-01-29T03:28:10.738Z,100643.69
2023-01-29T03:31:09.328Z,100625.19
2023-01-29T03:33:50.626Z,100622.63
2023-01-29T03:36:38.031Z,100628.59
2023-01-29T03:39:11.523Z,100623.28
2023-01-29T03:41:47.609Z,100630.34
2023-01-29T03:44:26.832Z,100632.03
2023-01-29T03:46:59.381Z,100626.81
2023-01-29T03:49:45.101Z,100621.59
2023-01-29T03:52:42.481Z,100612.84
2023-01-29T03:55:25.017Z,100609.78
2023-01-29T03:57:58.465Z,100607.06
2023-01-29T04:00:32.889Z,100602.06
2023-01-29T04:03:29.858Z,100600.03
2023-01-29T04:06:10.135Z,100605.34
2023-01-29T04:09:09.060Z,100601.75
2023-01-29T04:11:45.190Z,100600.03
2023-01-29T04:14:13.231Z,100598.19
2023-01-29T04:16:51.570Z,100599.00
2023-01-29T04:19:37.175Z,100599.69
2023-01-29T04:22:28.106Z,100602.44
2023-01-29T04:24:55.067Z,100599.09
2023-01-29T04:27:46.433Z,100591.84
2023-01-29T04:30:39.344Z,100581.91
2023-01-29T04:33:21.070Z,100562.53
2023-01-29T04:36:06.167Z,100567.69
2023-01-29T04:39:11.957Z,100562.47
2023-01-29T04:42:15.482Z,100569.38
2023-01-29T04:44:59.684Z,100553.47
2023-01-29T04:47:42.401Z,100553.63
2023-01-29T04:50:19.527Z,100553.53
2023-01-29T04:53:35.779Z,100556.28
2023-01-29T04:56:21.820Z,100552.72
2023-01-29T04:58:56.459Z,100548.16
2023-01-29T05:01:29.746Z,100551.69
2023-01-29T05:04:01.281Z,100551.50
2023-01-29T05:06:31.384Z,100543.63
2023-01-29T05:09:00.860Z,100539.28
2023-01-29T05:11:30.302Z,100546.19
2023-01-29T05:13:57.407Z,100544.34
2023-01-29T05:16:28.158Z,100530.38
2023-01-29T05:18:55.445Z,100530.19
2023-01-29T05:21:24.014Z,100528.50
2023-01-29T05:24:10.722Z,100537.53
2023-01-29T05:26:57.109Z,100525.41
2023-01-29T05:29:24.139Z,100522.16
2023-01-29T05:31:50.935Z,100520.44
2023-01-29T05:34:17.708Z,100513.44
2023-01-29T05:36:44.496Z,100509.22
2023-01-29T05:39:11.427Z,100499.41
2023-01-29T05:41:38.905Z,100490.81
2023-01-29T05:44:05.766Z,100467.91
2023-01-29T05:46:32.732Z,100471.41
2023-01-29T05:48:59.912Z,100469.59
2023-01-29T05:51:27.124Z,100470.63
2023-01-29T05:53:54.209Z,100463.63
2023-01-29T05:56:21.171Z,100466.19
2023-01-29T05:58:48.127Z,100455.75
2023-01-29T06:01:21.681Z,100445.97
2023-01-29T06:03:48.849Z,100449.59
2023-01-29T06:06:15.921Z,100432.06
2023-01-29T06:08:43.074Z,100425.78
2023-01-29T06:11:12.735Z,100429.41
2023-01-29T06:13:40.000Z,100415.34
2023-01-29T06:16:10.937Z,100413.66
2023-01-29T06:18:38.811Z,100422.53
2023-01-29T06:21:08.492Z,100414.75
2023-01-29T06:23:35.412Z,100408.53
2023-01-29T06:26:03.940Z,100412.00
2023-01-29T06:28:31.145Z,100415.34
2023-01-29T06:31:08.295Z,100410.91
2023-01-29T06:33:38.857Z,100406.69
2023-01-29T06:36:06.246Z,100401.66
2023-01-29T06:38:33.943Z,100395.50
2023-01-29T06:41:09.805Z,100410.38
2023-01-29T06:43:37.283Z,100405.25
2023-01-29T06:46:04.129Z,100398.41
2023-01-29T06:48:31.317Z,100398.41
2023-01-29T06:51:02.800Z,100385.50
2023-01-29T06:53:29.772Z,100321.09
2023-01-29T06:55:56.950Z,100308.78
2023-01-29T06:58:23.782Z,100269.44
2023-01-29T07:00:51.026Z,100265.44
2023-01-29T07:03:18.071Z,100246.28
2023-01-29T07:05:52.051Z,100200.88
2023-01-29T07:08:19.493Z,100190.63
2023-01-29T07:10:46.337Z,100190.72
2023-01-29T07:13:13.111Z,100181.91
2023-01-29T07:15:39.923Z,100177.66
2023-01-29T07:18:12.640Z,100175.00
2023-01-29T07:20:41.064Z,100175.78
2023-01-29T07:23:12.110Z,100175.78
2023-01-29T07:25:39.802Z,100171.31
2023-01-29T07:28:07.514Z,100173.38
2023-01-29T07:30:34.943Z,100169.78
2023-01-29T07:33:09.581Z,100169.97
2023-01-29T07:35:40.393Z,100157.69
2023-01-29T07:38:09.017Z,100171.66
2023-01-29T07:40:37.129Z,100157.69
2023-01-29T07:43:06.477Z,100146.16
2023-01-29T07:45:36.202Z,100139.06
2023-01-29T07:48:05.025Z,100139.25
2023-01-29T07:50:33.250Z,100129.47
2023-01-29T07:53:00.703Z,100139.25
2023-01-29T07:55:27.651Z,100129.47
2023-01-29T07:58:02.197Z,100129.47
2023-01-29T08:00:30.560Z,100138.03
2023-01-29T08:03:16.348Z,100139.00
2023-01-29T08:05:44.192Z,100133.44
2023-01-29T08:08:11.395Z,100137.88
2023-01-29T08:10:39.770Z,100145.63
2023-01-29T08:13:07.307Z,100139.56
2023-01-29T08:18:21.582Z,100141.78
2023-01-29T08:20:48.267Z,100140.94
2023-01-29T08:23:16.500Z,100140.94
2023-01-29T08:25:45.355Z,100144.28
2023-01-29T08:28:12.599Z,100148.44
2023-01-29T08:30:41.076Z,100144.09
2023-01-29T08:33:08.024Z,100137.03
2023-01-29T08:35:35.114Z,100142.16
2023-01-29T08:38:03.952Z,100137.78
2023-01-29T08:40:33.089Z,100139.31
2023-01-29T08:43:02.519Z,100136.69
2023-01-29T08:45:33.581Z,100143.69
2023-01-29T08:48:00.357Z,100144.38
2023-01-29T08:50:27.294Z,100148.81
2023-01-29T08:52:59.390Z,100139.56
2023-01-29T08:55:27.105Z,100141.13
2023-01-29T08:57:54.473Z,100143.94
2023-01-29T09:00:21.854Z,100140.44
2023-01-29T09:02:48.731Z,100136.34
2023-01-29T09:05:15.996Z,100139.72
2023-01-29T09:07:43.066Z,100127.44
2023-01-29T09:10:10.833Z,100126.09
2023-01-29T09:12:37.498Z,100116.69
2023-01-29T09:15:04.704Z,100112.41
2023-01-29T09:17:31.411Z,100113.13
2023-01-29T09:19:58.997Z,100113.78
2023-01-29T09:22:25.944Z,100115.41
2023-01-29T09:24:52.676Z,100066.06
2023-01-29T09:27:21.824Z,100058.81
2023-01-29T09:29:48.667Z,100037.28
2023-01-29T09:32:19.787Z,100044.75
2023-01-29T09:34:58.610Z,100013.06
2023-01-29T09:37:26.857Z,99999.94
2023-01-29T09:39:53.558Z,100005.06
2023-01-29T09:42:23.166Z,99990.00
2023-01-29T09:45:14.962Z,99996.00
2023-01-29T09:47:42.236Z,99997.78
2023-01-29T09:50:20.225Z,99987.38
2023-01-29T09:53:02.539Z,99971.41
2023-01-29T09:55:35.427Z,99976.88
2023-01-29T09:58:14.579Z,99271.09
2023-01-29T10:00:55.865Z,99234.72
2023-01-29T10:03:40.912Z,99234.28
2023-01-29T10:06:39.114Z,99239.38
2023-01-29T10:09:30.960Z,99230.69
2023-01-29T10:11:58.315Z,99245.72
2023-01-29T10:14:52.092Z,99236.84
2023-01-29T10:17:57.631Z,99240.97
2023-01-29T10:20:55.413Z,99243.41
2023-01-29T10:23:26.964Z,99276.94
2023-01-29T10:25:54.396Z,99277.25
2023-01-29T10:28:28.899Z,99278.00
2023-01-29T10:31:00.184Z,99269.31
2023-01-29T10:33:49.140Z,99261.59
2023-01-29T10:36:34.368Z,99256.19
2023-01-29T10:39:01.160Z,99249.31
2023-01-29T10:42:05.666Z,99249.34
2023-01-29T10:44:41.057Z,99250.91
2023-01-29T10:47:23.657Z,99240.22
2023-01-29T10:50:37.122Z,99222.97
2023-01-29T10:53:31.623Z,99223.06
2023-01-29T10:56:22.721Z,99213.13
2023-01-29T10:59:22.902Z,99194.72
2023-01-29T11:01:49.819Z,98909.38
2023-01-29T11:04:16.959Z,98887.75
2023-01-29T11:06:44.432Z,98631.97
2023-01-29T11:09:26.346Z,98596.03
2023-01-29T11:12:02.136Z,97812.50
2023-01-29T11:14:38.788Z,97545.28
2023-01-29T11:17:05.801Z,97474.94
2023-01-29T11:19:41.301Z,97439.09
2023-01-29T11:22:17.050Z,97424.81
2023-01-29T11:24:44.341Z,97411.97
2023-01-29T11:27:26.576Z,97375.38
2023-01-29T11:29:54.219Z,97187.66
2023-01-29T11:32:24.043Z,96992.53
2023-01-29T11:35:21.052Z,96805.03
2023-01-29T11:37:48.056Z,96349.69
2023-01-29T11:40:38.235Z,96247.88
2023-01-29T11:43:20.288Z,96239.47
2023-01-29T11:45:49.589Z,96141.56
2023-01-29T11:48:19.674Z,95917.53
2023-01-29T11:50:56.142Z,95548.72
2023-01-29T11:53:46.111Z,78583.41
2023-01-29T11:56:18.604Z,78604.38
2023-01-29T11:58:47.793Z,78556.09
2023-01-29T12:01:18.103Z,78596.00
2023-01-29T12:03:51.989Z,78581.28
2023-01-29T12:06:23.173Z,78575.00
2023-01-29T12:08:58.808Z,78568.69
2023-01-29T12:11:35.840Z,78558.22
2023-01-29T12:14:05.543Z,78549.81
2023-01-29T12:16:38.261Z,78560.31
2023-01-29T12:19:29.501Z,78551.91
2023-01-29T12:22:04.098Z,78518.31
2023-01-29T12:24:52.270Z,78509.94
2023-01-29T12:27:37.959Z,78509.94
2023-01-29T12:30:17.112Z,78480.56
2023-01-29T12:33:11.330Z,78407.09
2023-01-29T12:35:46.266Z,78373.50
2023-01-29T12:38:19.060Z,78379.81
2023-01-29T12:40:56.033Z,78346.22
2023-01-29T12:43:30.856Z,78505.72
2023-01-29T12:45:58.684Z,78453.25
2023-01-29T12:48:30.351Z,78390.31
2023-01-29T12:51:07.901Z,78342.03
2023-01-29T12:53:41.532Z,78356.72
2023-01-29T12:56:15.114Z,78409.19
2023-01-29T12:58:45.919Z,78321.03
2023-01-29T13:01:16.803Z,78287.47
2023-01-29T13:03:49.851Z,78253.88
2023-01-29T13:06:20.842Z,78264.38
2023-01-29T13:09:02.958Z,78220.31
2023-01-29T13:11:47.948Z,78295.84
2023-01-29T13:14:24.343Z,78224.50
2023-01-29T13:16:58.366Z,78195.13
2023-01-29T13:19:43.324Z,78184.63
2023-01-29T13:22:24.524Z,78174.13
2023-01-29T13:25:03.590Z,78214.00
2023-01-29T13:27:34.870Z,78163.63
2023-01-29T13:30:02.255Z,78151.03
2023-01-29T13:32:32.033Z,78142.66
2023-01-29T13:35:03.332Z,78148.94
2023-01-29T13:37:34.382Z,78136.34
2023-01-29T13:40:04.379Z,78224.50
2023-01-29T13:42:45.620Z,78174.13
2023-01-29T13:45:45.429Z,78159.44
2023-01-29T13:48:24.427Z,78148.94
2023-01-29T13:50:51.853Z,78155.25
2023-01-29T13:53:33.389Z,78144.75
2023-01-29T13:56:34.943Z,78153.13
2023-01-29T13:59:04.146Z,78130.06
2023-01-29T14:01:49.291Z,78127.97
2023-01-29T14:04:19.385Z,78125.84
2023-01-29T14:06:48.900Z,78127.97
2023-01-29T14:09:33.916Z,78190.91
2023-01-29T14:12:01.094Z,78159.44
2023-01-29T14:14:51.548Z,78153.13
2023-01-29T14:17:20.586Z,78157.34
2023-01-29T14:19:52.174Z,78157.34
2023-01-29T14:22:28.138Z,78144.75
2023-01-29T14:25:00.521Z,78153.13
2023-01-29T14:27:28.416Z,78161.53
2023-01-29T14:30:06.954Z,78163.63
2023-01-29T14:32:33.886Z,78163.63
2023-01-29T14:35:04.378Z,78207.72
2023-01-29T14:37:41.885Z,78176.22
2023-01-29T14:40:11.684Z,78169.94
2023-01-29T14:43:03.501Z,78165.72
2023-01-29T14:45:34.266Z,78157.34
2023-01-29T14:48:20.050Z,78153.13
2023-01-29T14:50:49.653Z,78159.44
2023-01-29T14:53:56.063Z,78153.13
2023-01-29T14:56:44.067Z,78148.94
2023-01-29T14:59:26.357Z,78163.63
2023-01-29T15:01:56.249Z,78161.53
2023-01-29T15:04:28.951Z,78148.94
2023-01-29T15:07:06.428Z,78148.94
2023-01-29T15:10:01.328Z,78157.34
2023-01-29T15:12:43.108Z,78153.13
2023-01-29T15:15:18.623Z,78151.03
2023-01-29T15:18:00.227Z,78146.84
2023-01-29T15:20:28.488Z,78144.75
2023-01-29T15:22:55.615Z,78144.75
2023-01-29T15:25:22.719Z,78146.84
2023-01-29T15:27:50.836Z,78140.56
2023-01-29T15:30:33.104Z,78142.66
2023-01-29T15:33:02.166Z,78148.94
2023-01-29T15:35:37.012Z,78148.94
2023-01-29T15:38:03.840Z,78174.13
2023-01-29T15:40:31.358Z,78167.84
2023-01-29T15:43:00.362Z,78157.34
2023-01-29T15:45:34.962Z,78153.13
2023-01-29T15:48:14.001Z,78148.94
2023-01-29T15:50:42.380Z,78140.56
2023-01-29T15:53:21.729Z,78140.56
2023-01-29T15:55:48.609Z,78140.56
2023-01-29T15:58:28.423Z,78132.16
2023-01-29T16:00:57.696Z,78136.34
2023-01-29T16:03:28.174Z,78138.44
2023-01-29T16:05:55.644Z,78132.16
2023-01-29T16:08:25.439Z,78140.56
2023-01-29T16:11:00.956Z,78132.16
2023-01-29T16:13:30.603Z,78138.44
2023-01-29T16:16:02.467Z,78134.25
2023-01-29T16:18:31.196Z,78134.25
2023-01-29T16:21:02.096Z,78142.66
2023-01-29T16:23:34.973Z,78153.13
2023-01-29T16:26:07.047Z,78155.25
2023-01-29T16:28:40.701Z,78155.25
2023-01-29T16:31:08.161Z,78148.94
2023-01-29T16:33:39.040Z,78151.03
2023-01-29T16:36:17.584Z,78148.94
2023-01-29T16:38:48.992Z,78148.94
2023-01-29T16:41:38.291Z,78151.03
2023-01-29T16:44:31.703Z,78151.03
2023-01-29T16:47:11.018Z,78153.13
2023-01-29T16:49:37.592Z,78157.34
2023-01-29T16:52:29.543Z,78148.94
2023-01-29T16:55:11.606Z,78153.13
2023-01-29T16:57:40.160Z,78148.94
2023-01-29T17:00:13.851Z,78144.75
2023-01-29T17:02:40.877Z,78138.44
2023-01-29T17:05:17.820Z,78138.44
2023-01-29T17:07:46.480Z,78136.34
2023-01-29T17:10:19.702Z,78142.66
2023-01-29T17:13:17.794Z,78136.34
2023-01-29T17:15:46.999Z,78132.16
2023-01-29T17:18:24.775Z,78132.16
2023-01-29T17:20:53.279Z,78134.25
2023-01-29T17:23:20.166Z,78140.56
2023-01-29T17:25:51.985Z,78138.44
2023-01-29T17:28:19.107Z,78134.25
2023-01-29T17:30:56.630Z,78140.56
2023-01-29T17:33:27.263Z,78134.25
2023-01-29T17:35:54.489Z,78134.25
2023-01-29T17:38:26.359Z,78127.97
2023-01-29T17:41:18.850Z,78132.16
2023-01-29T17:43:45.997Z,78123.75
2023-01-29T17:46:17.696Z,78132.16
2023-01-29T17:48:45.320Z,78125.84
2023-01-29T17:51:15.101Z,78115.38
2023-01-29T17:53:46.210Z,78121.66
2023-01-29T17:56:19.010Z,78119.56
2023-01-29T17:58:46.847Z,78125.84
2023-01-29T18:01:13.877Z,78117.47
2023-01-29T18:03:40.853Z,78119.56
2023-01-29T18:06:09.701Z,78111.16
2023-01-29T18:08:39.641Z,78106.97
2023-01-29T18:11:07.156Z,78100.69
2023-01-29T18:13:36.209Z,78106.97
2023-01-29T18:16:03.834Z,78098.56
2023-01-29T18:18:30.756Z,78081.78
2023-01-29T18:20:57.683Z,78085.97
2023-01-29T18:23:24.857Z,78157.34
2023-01-29T18:25:52.992Z,78134.25
2023-01-29T18:28:20.268Z,78113.25
2023-01-29T18:30:52.339Z,78113.25
2023-01-29T18:33:19.262Z,78106.97
2023-01-29T18:35:50.312Z,78106.97
2023-01-29T18:38:18.213Z,78100.69
2023-01-29T18:40:45.086Z,78090.19
2023-01-29T18:43:13.383Z,78090.19
2023-01-29T18:45:40.504Z,78090.19
2023-01-29T18:48:08.048Z,78094.38
2023-01-29T18:50:35.602Z,78090.19
2023-01-29T18:53:04.373Z,78088.09
2023-01-29T18:55:31.205Z,78079.69
2023-01-29T18:58:27.204Z,78073.41
2023-01-29T19:00:48.269Z,78062.91
2023-01-29T19:03:15.210Z,78052.41
2023-01-29T19:05:42.430Z,78052.41
2023-01-29T19:08:10.413Z,78052.41
2023-01-29T19:10:37.372Z,78052.41
2023-01-29T19:13:06.557Z,78056.59
2023-01-29T19:15:34.580Z,78109.06
2023-01-29T19:18:01.699Z,78073.41
2023-01-29T19:20:30.748Z,78069.19
2023-01-29T19:22:59.677Z,78062.91
2023-01-29T19:25:27.017Z,78060.81
2023-01-29T19:27:54.047Z,78062.91
2023-01-29T19:30:21.121Z,78058.69
2023-01-29T19:32:47.998Z,78048.22
2023-01-29T19:35:14.965Z,78039.81
2023-01-29T19:37:42.010Z,78020.94
2023-01-29T19:40:10.106Z,78012.53
2023-01-29T19:42:37.776Z,78004.13
2023-01-29T19:45:06.511Z,78079.69
2023-01-29T19:47:38.867Z,78031.41
2023-01-29T19:50:06.997Z,78010.44
2023-01-29T19:52:49.779Z,78012.53
2023-01-29T19:55:17.733Z,78004.13
2023-01-29T19:57:44.808Z,77991.53
2023-01-29T20:00:15.817Z,77993.66
2023-01-29T20:02:42.635Z,77993.66
2023-01-29T20:05:12.283Z,77978.94
2023-01-29T20:07:42.978Z,77972.66
2023-01-29T20:10:17.410Z,77960.06
2023-01-29T20:12:45.980Z,77955.88
2023-01-29T20:15:14.748Z,77955.88
2023-01-29T20:17:41.848Z,77947.47
2023-01-29T20:20:09.553Z,77943.28
2023-01-29T20:22:36.687Z,77930.69
2023-01-29T20:25:13.744Z,77934.88
2023-01-29T20:27:41.232Z,77926.50
2023-01-29T20:30:09.051Z,77922.28
2023-01-29T20:32:36.019Z,77911.81
2023-01-29T20:35:03.859Z,77901.31
2023-01-29T20:37:30.739Z,77901.31
2023-01-29T20:39:59.075Z,77905.50
2023-01-29T20:42:25.904Z,77897.09
2023-01-29T20:44:52.762Z,77888.72
2023-01-29T20:47:20.056Z,77897.09
2023-01-29T20:49:46.875Z,77892.91
2023-01-29T20:52:13.823Z,77880.31
2023-01-29T20:54:40.761Z,77882.41
2023-01-29T20:57:07.968Z,77871.94
2023-01-29T20:59:35.214Z,77871.94
2023-01-29T21:02:02.555Z,77874.03
2023-01-29T21:04:31.852Z,77867.72
2023-01-29T21:06:59.134Z,77863.53
2023-01-29T21:09:26.000Z,77832.06
2023-01-29T21:11:52.840Z,77842.53
2023-01-29T21:14:20.025Z,77821.56
2023-01-29T21:16:46.999Z,77817.38
2023-01-29T21:19:15.154Z,77815.25
2023-01-29T21:21:42.265Z,77808.97
2023-01-29T21:24:09.540Z,77800.56
2023-01-29T21:26:38.598Z,77813.16
2023-01-29T21:29:05.928Z,77817.38
2023-01-29T21:31:33.959Z,77823.66
2023-01-29T21:34:00.897Z,77825.75
2023-01-29T21:36:27.865Z,77821.56
2023-01-29T21:38:54.795Z,77827.84
2023-01-29T21:41:41.544Z,77846.75
2023-01-29T21:44:08.705Z,77853.03
2023-01-29T21:46:35.742Z,77846.75
2023-01-29T21:49:03.074Z,77861.44
2023-01-29T21:51:30.842Z,77876.13
2023-01-29T21:53:57.718Z,77869.81
2023-01-29T21:56:24.584Z,77861.44
2023-01-29T21:58:55.285Z,77857.25
2023-01-29T22:01:37.916Z,77936.97
2023-01-29T22:04:08.279Z,77888.72
2023-01-29T22:06:35.250Z,77863.53
2023-01-29T22:09:01.972Z,77834.16
2023-01-29T22:11:29.356Z,77821.56
2023-01-29T22:13:56.097Z,77808.97
2023-01-29T22:16:23.294Z,77790.09
2023-01-29T22:18:50.308Z,77775.41
2023-01-29T22:21:17.085Z,77748.13
2023-01-29T22:23:45.518Z,77733.44
2023-01-29T22:26:12.395Z,77729.22
2023-01-29T22:28:39.295Z,77733.44
2023-01-29T22:31:06.223Z,77741.81
2023-01-29T22:33:33.782Z,77737.63
2023-01-29T22:36:00.660Z,77737.63
2023-01-29T22:38:27.548Z,77739.72
2023-01-29T22:40:55.611Z,77748.13
2023-01-29T22:43:23.789Z,77748.13
2023-01-29T22:45:50.677Z,77754.41
2023-01-29T22:48:18.398Z,77746.00
2023-01-29T22:50:54.200Z,77750.22
2023-01-29T22:53:21.123Z,77758.59
2023-01-29T22:55:55.851Z,77767.00
2023-01-29T22:58:22.974Z,77754.41
2023-01-29T23:00:51.108Z,77743.91
2023-01-29T23:03:17.841Z,77741.81
2023-01-29T23:05:44.849Z,77746.00
2023-01-29T23:08:11.719Z,77750.22
2023-01-29T23:10:38.578Z,77741.81
2023-01-29T23:13:05.329Z,77741.81
2023-01-29T23:15:32.318Z,77741.81
2023-01-29T23:17:59.334Z,77750.22
2023-01-29T23:20:26.209Z,77746.00
2023-01-29T23:22:53.044Z,77741.81
2023-01-29T23:25:19.717Z,77737.63
2023-01-29T23:27:46.530Z,77729.22
2023-01-29T23:30:13.819Z,77720.84
2023-01-29T23:32:40.615Z,77706.16
2023-01-29T23:35:08.230Z,77708.25
2023-01-29T23:37:34.907Z,77706.16
2023-01-29T23:40:01.640Z,77752.31
2023-01-29T23:42:28.564Z,77731.31
2023-01-29T23:44:55.487Z,77722.94
2023-01-29T23:47:22.224Z,77720.84
2023-01-29T23:49:49.073Z,77712.44
2023-01-29T23:52:15.792Z,77704.03
2023-01-29T23:54:42.503Z,77691.47
2023-01-29T23:57:09.275Z,77685.16
2023-01-29T23:59:36.090Z,77674.66
